Terminal Aerodrome Forecast
Issued by NWS Omaha/Valley, NE

Home | Current Version | Previous Version | Text Only | Print | Product List | Glossary On
Versions: 1 2 3 4 5 6 7 8 9 10 11 12 13 14 15 16
000
FTUS43 KOAX 231124
TAFOFK
TAF
KOFK 231124Z 2312/2412 13014G22KT P6SM VCSH BKN080 WS020/17050KT
     FM231400 16026G34KT P6SM SCT040 BKN120
      TEMPO 2323/2403 VRB20G30KT 4SM TSRA BKN030CB
     FM240300 35018KT 4SM -SHRA OVC025
     FM240900 32015KT P6SM OVC035=

USA.gov is the U.S. government's official web portal to all federal, state and local government web resources and services.